Time;durP1;ratioP1;P1;durP2;ratioP2;P2;SDS_P1;SDS_P2;PMS_P1;PMS_P2;Temp;Humidity;BMP_temperature;BMP_pressure;BME280_temperature;BME280_humidity;BME280_pressure;Samples;Min_cycle;Max_cycle;Signal;HPM_P1;HPM_P2
2021/01/24 00:00:22;;;;;;;9.00;5.95;;;;;;;21.53;36.30;93627.22;4954455;28;20039;-83
2021/01/24 00:02:48;;;;;;;7.95;5.85;;;;;;;21.52;36.20;93627.75;4958515;28;20431;-83
2021/01/24 00:05:13;;;;;;;8.45;6.10;;;;;;;21.56;36.51;93625.47;4956132;28;20039;-81
2021/01/24 00:07:39;;;;;;;8.27;5.93;;;;;;;21.49;36.47;93607.09;4956549;28;20034;-82
2021/01/24 00:10:05;;;;;;;8.10;5.78;;;;;;;21.54;36.28;93611.69;4973829;28;20045;-83
2021/01/24 00:12:31;;;;;;;8.93;5.97;;;;;;;21.44;36.44;93610.66;4962212;28;20027;-83
2021/01/24 00:14:56;;;;;;;10.00;6.30;;;;;;;21.43;36.43;93604.50;4955334;28;20031;-82
2021/01/24 00:17:22;;;;;;;7.97;5.68;;;;;;;21.37;36.48;93611.31;4953981;29;20035;-82
2021/01/24 00:19:47;;;;;;;9.27;6.22;;;;;;;21.37;36.49;93622.16;4953858;29;20038;-83
2021/01/24 00:22:13;;;;;;;9.88;6.93;;;;;;;21.20;36.63;93602.81;4957296;28;20043;-83
2021/01/24 00:24:38;;;;;;;9.77;6.45;;;;;;;21.39;36.40;93629.78;4954863;28;20031;-83
2021/01/24 00:27:04;;;;;;;8.43;6.05;;;;;;;21.42;36.57;93634.16;4955854;29;20034;-83
2021/01/24 00:29:29;;;;;;;8.10;6.43;;;;;;;21.41;36.35;93628.00;4956281;29;20193;-84
2021/01/24 00:31:55;;;;;;;9.10;6.50;;;;;;;21.34;36.60;93617.78;4954067;29;20019;-83
2021/01/24 00:34:20;;;;;;;8.98;6.25;;;;;;;21.34;36.66;93625.94;4954101;28;20047;-83
2021/01/24 00:36:46;;;;;;;8.35;6.13;;;;;;;21.31;36.64;93623.56;4953217;29;20082;-83
2021/01/24 00:39:11;;;;;;;7.80;5.93;;;;;;;21.23;36.58;93645.22;4953580;28;20034;-84
2021/01/24 00:41:37;;;;;;;10.18;6.55;;;;;;;21.24;36.72;93641.25;4952209;29;20063;-84
2021/01/24 00:44:02;;;;;;;8.13;5.75;;;;;;;21.23;36.72;93645.22;4954058;29;20026;-84
2021/01/24 00:46:28;;;;;;;8.50;5.72;;;;;;;21.18;36.66;93643.34;4954472;29;20027;-83
2021/01/24 00:48:53;;;;;;;9.15;6.30;;;;;;;21.24;36.47;93630.38;4954043;29;20027;-83
2021/01/24 00:51:19;;;;;;;9.35;6.20;;;;;;;21.04;36.64;93606.63;4953712;28;20030;-83
2021/01/24 00:53:44;;;;;;;8.68;5.90;;;;;;;21.28;36.34;93636.19;4953737;28;20031;-84
2021/01/24 00:56:10;;;;;;;8.15;6.05;;;;;;;21.18;36.81;93637.94;4953695;28;20038;-83
2021/01/24 00:58:35;;;;;;;8.63;6.20;;;;;;;21.18;36.45;93632.50;4953305;28;20027;-84
2021/01/24 01:01:01;;;;;;;9.07;6.18;;;;;;;21.20;36.67;93629.97;4953528;28;20050;-83
2021/01/24 01:03:26;;;;;;;7.20;5.57;;;;;;;21.18;36.62;93632.50;4953650;28;20027;-83
2021/01/24 01:05:52;;;;;;;9.90;6.45;;;;;;;21.13;36.81;93630.63;4952713;29;20027;-84
2021/01/24 01:08:17;;;;;;;7.60;5.85;;;;;;;21.09;36.86;93651.94;4953607;29;20495;-84
2021/01/24 01:10:43;;;;;;;7.78;5.65;;;;;;;21.12;36.58;93618.31;4954276;28;20031;-84
2021/01/24 01:13:08;;;;;;;8.98;5.75;;;;;;;21.04;36.74;93628.34;4954468;28;20031;-84
2021/01/24 01:15:34;;;;;;;7.43;5.50;;;;;;;21.05;36.83;93608.09;4954723;28;20027;-83
2021/01/24 01:17:59;;;;;;;8.07;5.80;;;;;;;21.10;36.77;93631.66;4958595;28;20024;-84
2021/01/24 01:20:25;;;;;;;7.40;5.15;;;;;;;21.12;36.61;93628.44;4954513;28;20023;-84
2021/01/24 01:22:51;;;;;;;7.72;5.50;;;;;;;21.09;36.71;93608.50;4954351;28;20030;-83
2021/01/24 01:25:16;;;;;;;7.80;5.72;;;;;;;21.11;36.66;93638.56;4952899;29;20042;-83
2021/01/24 01:27:42;;;;;;;7.50;5.47;;;;;;;21.08;36.56;93609.75;4955244;28;20107;-84
2021/01/24 01:30:08;;;;;;;8.85;5.63;;;;;;;21.02;36.72;93609.16;4954267;28;20027;-83
2021/01/24 01:32:33;;;;;;;7.20;5.22;;;;;;;21.00;36.47;93602.78;4954202;28;20039;-84
2021/01/24 01:34:59;;;;;;;7.15;5.28;;;;;;;21.01;36.81;93618.53;4954364;28;20097;-83
2021/01/24 01:37:25;;;;;;;7.80;5.47;;;;;;;21.01;36.54;93623.97;4953827;28;20445;-83
2021/01/24 01:39:50;;;;;;;7.35;5.43;;;;;;;20.96;36.57;93593.53;4957123;28;20485;-84
2021/01/24 01:42:16;;;;;;;8.52;5.13;;;;;;;21.01;36.69;93613.13;4954548;28;20039;-84
2021/01/24 01:44:42;;;;;;;7.05;5.20;;;;;;;20.96;36.63;93597.69;4954520;28;20023;-81
2021/01/24 01:47:09;;;;;;;7.40;5.38;;;;;;;20.98;36.74;93619.63;4954558;28;20035;-83
2021/01/24 01:49:35;;;;;;;7.95;5.70;;;;;;;20.96;36.61;93631.53;4933734;29;20066;-84
2021/01/24 01:52:00;;;;;;;8.40;5.30;;;;;;;20.73;36.75;93581.69;4935007;29;20580;-84
2021/01/24 01:54:25;;;;;;;8.73;5.38;;;;;;;20.76;36.46;93603.09;4933742;29;20032;-84
2021/01/24 01:56:52;;;;;;;6.97;5.10;;;;;;;20.94;36.32;93623.16;4933293;29;20028;-84
2021/01/24 01:59:18;;;;;;;7.10;5.28;;;;;;;20.90;36.60;93617.34;4933472;29;20524;-83
2021/01/24 02:01:55;;;;;;;6.88;5.22;;;;;;;20.93;36.61;93619.03;4934267;28;20028;-84
2021/01/24 02:04:28;;;;;;;7.40;5.35;;;;;;;20.92;36.26;93622.97;4934733;28;20421;-84
2021/01/24 02:07:12;;;;;;;6.85;4.95;;;;;;;20.77;36.71;93601.09;4934497;29;20027;-83
2021/01/24 02:09:58;;;;;;;7.15;5.05;;;;;;;20.94;36.30;93606.88;4937333;29;20063;-81
2021/01/24 02:12:29;;;;;;;6.80;4.90;;;;;;;20.94;36.59;93625.88;4990192;23;20020;-83
2021/01/24 02:15:01;;;;;;;7.03;4.65;;;;;;;20.95;36.60;93630.06;4996244;28;20586;-82
2021/01/24 02:17:26;;;;;;;6.30;4.60;;;;;;;20.76;36.57;93613.19;4996157;28;20034;-83
2021/01/24 02:19:58;;;;;;;6.30;4.80;;;;;;;20.92;36.33;93631.13;4994699;28;20400;-83
2021/01/24 02:22:25;;;;;;;7.28;5.05;;;;;;;20.91;36.61;93635.06;4995889;28;20034;-83
2021/01/24 02:25:09;;;;;;;6.70;4.88;;;;;;;20.89;36.74;93626.75;4996385;28;20038;-83
2021/01/24 02:28:12;;;;;;;6.82;5.30;;;;;;;20.93;36.54;93619.03;4995681;28;20026;-83
2021/01/24 02:30:37;;;;;;;6.03;4.72;;;;;;;20.75;36.59;93601.63;4996379;28;20033;-84
2021/01/24 02:33:10;;;;;;;6.10;4.70;;;;;;;20.90;36.72;93622.78;4994948;28;20026;-83
2021/01/24 02:35:40;;;;;;;7.40;5.18;;;;;;;20.87;36.49;93612.97;4994109;28;20114;-84
2021/01/24 02:38:06;;;;;;;7.10;5.00;;;;;;;20.82;36.47;93606.41;4978293;28;20025;-84
2021/01/24 02:40:33;;;;;;;7.15;4.90;;;;;;;20.83;36.64;93596.28;4977264;28;20019;-83
2021/01/24 02:42:58;;;;;;;6.57;4.95;;;;;;;20.82;36.99;93589.41;4995691;28;20022;-84
2021/01/24 02:45:23;;;;;;;6.43;4.72;;;;;;;20.83;36.90;93596.28;4978579;28;20022;-84
2021/01/24 02:47:49;;;;;;;7.97;4.82;;;;;;;20.83;36.77;93613.28;4994792;28;20025;-84
2021/01/24 02:50:15;;;;;;;6.03;4.63;;;;;;;20.85;36.39;93612.75;4997632;28;20023;-83
2021/01/24 02:52:40;;;;;;;5.82;4.43;;;;;;;20.82;36.90;93611.84;4995355;28;20026;-84
2021/01/24 02:55:07;;;;;;;6.22;4.45;;;;;;;20.83;36.81;93609.84;4978690;28;20521;-83
2021/01/24 02:57:32;;;;;;;6.85;4.70;;;;;;;20.81;36.62;93593.38;4995352;28;20088;-84
2021/01/24 02:59:58;;;;;;;6.20;4.32;;;;;;;20.80;36.72;93603.47;4995087;28;20478;-82
2021/01/24 03:02:23;;;;;;;5.85;4.25;;;;;;;20.73;36.75;93608.81;4977455;28;20541;-83
2021/01/24 03:04:49;;;;;;;6.22;4.50;;;;;;;20.51;36.62;93571.31;4994656;28;20022;-84
2021/01/24 03:07:14;;;;;;;6.30;4.57;;;;;;;20.65;36.70;93586.28;4993844;28;20118;-83
2021/01/24 03:09:40;;;;;;;6.25;4.18;;;;;;;20.76;36.72;93591.50;4993535;28;20069;-83
2021/01/24 03:12:06;;;;;;;7.28;4.90;;;;;;;20.73;36.70;93587.13;5017696;23;20417;-83
2021/01/24 03:14:32;;;;;;;6.80;4.60;;;;;;;20.77;36.85;93588.25;4975415;28;20496;-83
2021/01/24 03:16:57;;;;;;;5.55;4.20;;;;;;;20.77;36.68;93596.41;4958501;28;20034;-82
2021/01/24 03:19:24;;;;;;;7.15;4.50;;;;;;;20.76;36.51;93603.09;4973756;28;20109;-83
2021/01/24 03:21:49;;;;;;;5.80;4.22;;;;;;;20.73;36.91;93592.56;4958010;28;20118;-82
2021/01/24 03:24:16;;;;;;;6.35;4.28;;;;;;;20.75;36.91;93595.47;4960096;28;20038;-82
2021/01/24 03:26:42;;;;;;;5.40;4.40;;;;;;;20.73;36.86;93596.00;4958007;28;20110;-82
2021/01/24 03:29:07;;;;;;;6.47;4.68;;;;;;;20.73;36.85;93603.41;4974251;28;20031;-83
2021/01/24 03:31:33;;;;;;;5.47;4.05;;;;;;;20.72;36.96;93596.53;4976025;28;20502;-83
2021/01/24 03:33:58;;;;;;;5.85;4.10;;;;;;;20.73;36.94;93614.25;4976644;28;20130;-82
2021/01/24 03:36:24;;;;;;;4.97;3.67;;;;;;;20.73;36.91;93603.41;4975231;28;20026;-83
2021/01/24 03:38:49;;;;;;;6.82;4.13;;;;;;;20.70;36.65;93609.88;4976205;28;20027;-83
2021/01/24 03:41:15;;;;;;;5.88;3.90;;;;;;;20.68;36.97;93617.81;4973620;28;20034;-82
2021/01/24 03:43:40;;;;;;;5.75;3.97;;;;;;;20.68;36.95;93606.97;4978521;28;20034;-83
2021/01/24 03:46:05;;;;;;;5.65;4.07;;;;;;;20.68;36.77;93601.53;4994705;28;20033;-84
2021/01/24 03:48:32;;;;;;;5.30;3.80;;;;;;;20.67;36.92;93621.75;4994365;28;20480;-83
2021/01/24 03:50:58;;;;;;;5.22;3.85;;;;;;;20.78;36.66;93621.56;4999015;28;20019;-79
2021/01/24 03:53:23;;;;;;;5.95;4.25;;;;;;;20.76;36.49;93602.34;5010760;28;20082;-81
2021/01/24 03:55:48;;;;;;;5.45;3.90;;;;;;;20.95;36.69;93624.63;5012077;28;20034;-80
2021/01/24 03:58:14;;;;;;;6.20;4.50;;;;;;;21.00;36.45;93627.97;5009882;28;20037;-79
2021/01/24 04:00:39;;;;;;;4.97;3.85;;;;;;;21.04;36.60;93612.06;5011133;28;20385;-79
2021/01/24 04:03:05;;;;;;;5.38;3.90;;;;;;;21.07;36.72;93632.72;5006701;28;20038;-82
2021/01/24 04:05:31;;;;;;;5.63;3.92;;;;;;;21.10;36.46;93623.53;4996118;28;20030;-84
2021/01/24 04:07:56;;;;;;;4.45;3.70;;;;;;;21.09;36.53;93613.94;4996263;28;20046;-83
2021/01/24 04:10:22;;;;;;;5.13;3.83;;;;;;;21.14;36.43;93621.22;4996897;28;20027;-84
2021/01/24 04:12:47;;;;;;;5.22;3.60;;;;;;;21.15;36.50;93625.41;4997543;28;20439;-82
2021/01/24 04:15:13;;;;;;;5.53;3.50;;;;;;;21.17;36.52;93631.03;4996853;28;20034;-83
2021/01/24 04:17:39;;;;;;;5.10;3.42;;;;;;;21.04;36.23;93617.50;4996989;28;20042;-83
2021/01/24 04:20:04;;;;;;;5.60;3.50;;;;;;;21.19;36.41;93623.06;4995880;28;20030;-83
2021/01/24 04:22:30;;;;;;;4.30;3.38;;;;;;;21.07;36.30;93610.28;5033143;23;20065;-83
2021/01/24 04:24:55;;;;;;;4.50;3.47;;;;;;;21.08;36.45;93620.63;4972582;28;20022;-83
2021/01/24 04:27:21;;;;;;;4.70;3.55;;;;;;;21.19;36.39;93636.66;4974609;28;20503;-83
2021/01/24 04:29:46;;;;;;;4.22;3.47;;;;;;;21.22;36.21;93643.75;4993221;28;20388;-82
2021/01/24 04:32:12;;;;;;;4.43;3.15;;;;;;;21.27;36.51;93642.16;4993861;28;20487;-83
2021/01/24 04:34:38;;;;;;;4.38;3.20;;;;;;;21.31;36.31;93640.56;4993970;28;20561;-83
2021/01/24 04:37:03;;;;;;;3.63;3.08;;;;;;;21.32;36.55;93636.59;4993365;28;20026;-83
2021/01/24 04:39:28;;;;;;;4.57;3.30;;;;;;;21.34;36.50;93646.94;4994686;28;20026;-82
2021/01/24 04:41:54;;;;;;;3.83;2.90;;;;;;;21.36;36.44;93647.88;4995298;28;20025;-82
2021/01/24 04:44:19;;;;;;;3.80;2.90;;;;;;;21.12;36.41;93607.47;4994005;28;20497;-83
2021/01/24 04:46:45;;;;;;;4.22;3.03;;;;;;;21.38;36.36;93639.22;4992245;28;20053;-83
2021/01/24 04:49:11;;;;;;;4.47;3.38;;;;;;;21.41;36.25;93644.31;4992614;28;20441;-82
2021/01/24 04:51:38;;;;;;;4.20;2.95;;;;;;;21.25;36.24;93626.41;4994346;28;20022;-83
2021/01/24 04:54:04;;;;;;;3.60;2.88;;;;;;;21.38;36.36;93634.50;4991907;28;20096;-83
2021/01/24 04:56:29;;;;;;;4.10;3.08;;;;;;;21.32;36.39;93636.59;4981083;28;20026;-82
2021/01/24 04:58:55;;;;;;;5.68;3.20;;;;;;;21.44;36.23;93659.53;4972852;28;20027;-83
2021/01/24 05:01:20;;;;;;;3.97;2.80;;;;;;;21.41;36.05;93644.31;4973720;28;20097;-83
2021/01/24 05:03:47;;;;;;;3.75;2.83;;;;;;;21.45;36.16;93650.88;4956859;28;20030;-83
2021/01/24 05:06:13;;;;;;;3.88;2.90;;;;;;;21.42;36.21;93651.19;4975986;28;20030;-83
2021/01/24 05:08:42;;;;;;;3.58;2.72;;;;;;;21.45;36.33;93661.00;4973742;28;20022;-83
2021/01/24 05:11:08;;;;;;;3.55;2.60;;;;;;;21.47;36.28;93658.50;4972096;28;20058;-82
2021/01/24 05:13:33;;;;;;;3.58;2.50;;;;;;;21.47;36.29;93663.94;4976695;28;20030;-83
2021/01/24 05:15:59;;;;;;;3.63;2.80;;;;;;;21.50;36.31;93679.19;4993365;28;20032;-83
2021/01/24 05:18:25;;;;;;;4.13;2.80;;;;;;;21.51;36.30;93680.66;4993047;28;20034;-83
2021/01/24 05:20:51;;;;;;;3.95;2.72;;;;;;;21.50;36.17;93674.47;4992900;28;20030;-78
2021/01/24 05:23:19;;;;;;;3.92;2.50;;;;;;;21.51;35.69;93669.78;4993883;28;20054;-83
2021/01/24 05:25:44;;;;;;;3.72;2.58;;;;;;;21.53;36.11;93673.41;4991750;28;20046;-83
2021/01/24 05:28:17;;;;;;;3.55;2.60;;;;;;;21.42;36.13;93668.22;4992141;28;20062;-83
2021/01/24 05:30:42;;;;;;;3.47;2.53;;;;;;;21.55;36.16;93691.91;4972747;28;20019;-83
2021/01/24 05:33:08;;;;;;;3.97;3.00;;;;;;;21.54;36.27;93695.88;4954725;28;20030;-84
2021/01/24 05:35:35;;;;;;;3.60;2.35;;;;;;;21.57;36.18;93689.41;4953866;28;20416;-83
2021/01/24 05:38:00;;;;;;;3.40;2.38;;;;;;;21.58;36.13;93680.72;4937506;28;21351;-85
2021/01/24 05:40:26;;;;;;;4.25;2.50;;;;;;;21.58;36.12;93690.84;4977418;28;20423;-85
2021/01/24 05:42:52;;;;;;;3.35;2.40;;;;;;;21.58;35.97;93690.84;4970765;28;20420;-85
2021/01/24 05:45:17;;;;;;;3.47;2.40;;;;;;;21.46;35.99;93659.75;4973399;28;20090;-80
2021/01/24 05:47:44;;;;;;;3.90;2.40;;;;;;;21.61;36.09;93678.91;4974041;28;20034;-82
2021/01/24 05:50:11;;;;;;;3.20;2.30;;;;;;;21.52;35.87;93663.06;4976159;28;20044;-87
2021/01/24 05:52:41;;;;;;;3.70;2.33;;;;;;;21.53;36.17;93657.13;4975507;28;20155;-80
2021/01/24 05:55:09;;;;;;;2.90;2.00;;;;;;;21.68;36.07;93681.69;4975780;28;20117;-79
2021/01/24 05:57:40;;;;;;;3.10;2.20;;;;;;;21.57;36.34;93667.66;4976463;28;20038;-77
2021/01/24 06:00:06;;;;;;;3.28;2.38;;;;;;;21.68;36.10;93678.25;4970954;28;20039;-74
2021/01/24 06:02:32;;;;;;;3.38;2.25;;;;;;;21.68;36.13;93675.53;4957227;28;20127;-75
2021/01/24 06:04:57;;;;;;;2.88;1.75;;;;;;;21.66;36.33;93686.22;4955817;28;20023;-76
2021/01/24 06:07:23;;;;;;;3.35;2.10;;;;;;;21.68;36.35;93678.97;4934271;28;20106;-76
2021/01/24 06:09:49;;;;;;;3.28;2.10;;;;;;;21.70;35.98;93692.03;4975699;28;20026;-76
2021/01/24 06:12:17;;;;;;;3.05;2.00;;;;;;;21.72;36.26;93712.00;4975852;28;20027;-79
2021/01/24 06:14:49;;;;;;;3.50;2.20;;;;;;;21.70;36.02;93702.91;4975002;28;20031;-77
2021/01/24 06:17:40;;;;;;;2.95;1.98;;;;;;;21.73;36.15;93707.28;4975714;28;20233;-77
2021/01/24 06:20:06;;;;;;;3.58;2.13;;;;;;;21.77;36.29;93737.59;4976040;28;20039;-79
2021/01/24 06:22:44;;;;;;;3.08;2.10;;;;;;;21.67;36.41;93731.13;4975591;28;20837;-76
2021/01/24 06:25:12;;;;;;;3.53;2.05;;;;;;;21.69;36.28;93734.78;4958879;28;20447;-79
2021/01/24 06:27:38;;;;;;;2.97;1.83;;;;;;;21.79;36.31;93749.34;4973976;28;20427;-76
2021/01/24 06:30:09;;;;;;;2.70;1.65;;;;;;;21.78;36.30;93747.16;4975690;28;20033;-75
2021/01/24 06:32:34;;;;;;;2.55;1.80;;;;;;;21.64;36.47;93715.88;4958147;28;20030;-77
2021/01/24 06:35:23;;;;;;;2.70;1.92;;;;;;;21.79;36.31;93737.78;4972157;28;20015;-76
2021/01/24 06:37:51;;;;;;;2.90;1.80;;;;;;;21.73;36.35;93729.00;4971018;28;20073;-77
2021/01/24 06:40:20;;;;;;;2.30;1.60;;;;;;;21.85;36.50;93751.97;4971593;28;20487;-77
2021/01/24 06:42:47;;;;;;;2.45;1.70;;;;;;;21.89;36.33;93757.81;4973766;28;20067;-80
2021/01/24 06:45:22;;;;;;;2.60;1.75;;;;;;;21.90;36.21;93770.13;4975539;28;20412;-76
2021/01/24 06:47:47;;;;;;;2.28;1.50;;;;;;;21.89;36.53;93769.41;4977668;28;20575;-78
2021/01/24 06:50:42;;;;;;;4.68;2.08;;;;;;;21.93;36.01;93754.22;4973365;28;20019;-79
2021/01/24 06:53:14;;;;;;;2.50;1.55;;;;;;;21.93;35.84;93775.97;4972726;28;20396;-76
2021/01/24 06:55:51;;;;;;;2.45;1.70;;;;;;;21.93;36.02;93781.41;4973325;28;20090;-80
2021/01/24 06:58:44;;;;;;;3.00;1.67;;;;;;;21.84;35.82;93766.78;4973098;28;20080;-77
2021/01/24 07:01:25;;;;;;;1.75;1.30;;;;;;;21.94;36.02;93782.88;4973605;28;20042;-86
2021/01/24 07:04:19;;;;;;;2.67;1.65;;;;;;;21.94;35.67;93782.13;4975034;28;20173;-92
2021/01/24 07:06:48;;;;;;;2.35;1.70;;;;;;;21.96;35.83;93795.94;4969286;28;20043;-90
2021/01/24 07:09:26;;;;;;;2.60;1.65;;;;;;;21.97;35.39;93808.25;4982736;28;20034;-92
2021/01/24 07:11:58;;;;;;;2.67;1.67;;;;;;;21.90;35.73;93776.31;4974844;28;20030;-92
2021/01/24 07:14:35;;;;;;;2.03;1.42;;;;;;;21.97;35.73;93798.13;4973353;28;20030;-91
2021/01/24 07:17:07;;;;;;;1.90;1.30;;;;;;;21.99;35.65;93789.44;4973085;28;20035;-91
2021/01/24 07:19:42;;;;;;;2.38;1.70;;;;;;;21.98;36.10;93788.69;4962665;28;20081;-71
2021/01/24 07:22:08;;;;;;;2.25;1.50;;;;;;;21.98;35.89;93788.69;4966316;28;20137;-71
2021/01/24 07:24:34;;;;;;;1.85;1.27;;;;;;;21.97;36.26;93787.25;4968121;28;20042;-71
2021/01/24 07:26:59;;;;;;;2.30;1.35;;;;;;;22.02;35.65;93783.66;4968961;28;20527;-71
2021/01/24 07:29:25;;;;;;;2.38;1.70;;;;;;;22.02;35.94;93789.09;4958803;28;20547;-70
2021/01/24 07:31:51;;;;;;;3.00;1.55;;;;;;;21.99;35.69;93773.84;4954005;28;20035;-70
2021/01/24 07:34:25;;;;;;;2.65;1.55;;;;;;;22.03;35.93;93796.00;4957022;28;20071;-70
2021/01/24 07:36:51;;;;;;;3.15;1.63;;;;;;;22.03;36.04;93795.25;4971977;28;20050;-70
2021/01/24 07:39:17;;;;;;;2.25;1.20;;;;;;;22.01;36.32;93793.06;4970745;28;20027;-71
2021/01/24 07:41:44;;;;;;;2.17;1.27;;;;;;;22.04;36.50;93802.88;4970421;28;20061;-70
2021/01/24 07:44:09;;;;;;;3.08;1.50;;;;;;;22.02;36.54;93805.41;4973246;28;20097;-87
2021/01/24 07:46:35;;;;;;;2.65;1.30;;;;;;;22.00;36.54;93797.06;4971533;28;20777;-82
2021/01/24 07:49:00;;;;;;;2.22;1.50;;;;;;;22.00;36.47;93802.50;4974896;28;20110;-78
2021/01/24 07:51:26;;;;;;;2.08;1.33;;;;;;;22.00;37.08;93807.19;4967643;28;20023;-75
2021/01/24 07:53:51;;;;;;;4.80;2.25;;;;;;;22.04;36.90;93813.75;4970040;28;20115;-82
2021/01/24 07:56:17;;;;;;;3.15;1.77;;;;;;;22.08;37.61;93803.28;4966650;28;20049;-78
2021/01/24 07:58:42;;;;;;;2.65;1.40;;;;;;;22.04;37.10;93813.75;4972383;28;20423;-84
2021/01/24 08:01:08;;;;;;;2.03;1.13;;;;;;;22.20;37.11;93826.25;4977875;28;20015;-84
2021/01/24 08:03:34;;;;;;;2.45;1.45;;;;;;;22.29;37.54;93833.97;4959250;28;20041;-85
2021/01/24 08:06:10;;;;;;;2.35;1.35;;;;;;;22.33;37.09;93818.06;4963325;28;20033;-81
2021/01/24 08:08:36;;;;;;;2.25;1.27;;;;;;;22.54;36.79;93833.13;4974955;28;20146;-88
2021/01/24 08:11:02;;;;;;;1.90;1.20;;;;;;;22.65;36.67;93826.66;4973684;28;20026;-87
2021/01/24 08:13:28;;;;;;;2.50;1.23;;;;;;;22.68;36.93;93847.38;4962582;28;20599;-79
2021/01/24 08:15:53;;;;;;;2.30;1.30;;;;;;;22.63;36.44;93821.00;4973571;28;20034;-89
2021/01/24 08:18:19;;;;;;;1.70;1.10;;;;;;;22.88;36.71;93817.41;4974478;28;20090;-86
2021/01/24 08:20:44;;;;;;;1.40;1.05;;;;;;;22.97;36.34;93858.53;4990263;28;20041;-81
2021/01/24 08:23:10;;;;;;;3.65;1.25;;;;;;;22.99;36.20;93845.09;4974391;28;20050;-86
2021/01/24 08:25:35;;;;;;;2.05;1.02;;;;;;;23.17;36.19;93849.56;4977802;28;20022;-81
2021/01/24 08:28:01;;;;;;;2.17;1.40;;;;;;;23.31;36.14;93870.00;4967064;28;20496;-92
2021/01/24 08:30:26;;;;;;;2.92;1.42;;;;;;;23.33;35.73;93856.56;4974407;28;20101;-82
2021/01/24 08:32:52;;;;;;;3.10;1.50;;;;;;;23.51;35.90;93817.41;4971643;28;20031;-86
2021/01/24 08:35:17;;;;;;;3.38;1.20;;;;;;;23.59;36.00;93840.00;4972721;28;20483;-80
2021/01/24 08:37:43;;;;;;;2.85;1.40;;;;;;;23.46;36.05;93799.94;4971716;28;20630;-78
2021/01/24 08:40:09;;;;;;;2.70;0.98;;;;;;;23.72;35.41;93853.50;4973407;28;20014;-83
2021/01/24 08:42:48;;;;;;;2.55;1.40;;;;;;;23.66;35.86;93828.41;4972465;28;20023;-76
2021/01/24 08:45:19;;;;;;;3.47;1.20;;;;;;;23.84;35.65;93849.94;4972658;28;20121;-84
2021/01/24 08:47:52;;;;;;;2.33;1.08;;;;;;;23.93;35.47;93858.34;4974722;28;20035;-87
2021/01/24 08:50:18;;;;;;;2.95;1.30;;;;;;;23.86;35.55;93819.41;4972019;28;20027;-76
2021/01/24 08:52:43;;;;;;;2.33;1.30;;;;;;;23.98;35.42;93849.25;4985530;28;20495;-79
2021/01/24 08:55:09;;;;;;;2.45;1.30;;;;;;;24.12;34.93;93858.72;4967087;28;20034;-79
2021/01/24 08:57:34;;;;;;;2.70;1.10;;;;;;;24.16;35.56;93853.66;4973582;28;20014;-82
2021/01/24 09:00:10;;;;;;;2.53;1.17;;;;;;;24.20;34.74;93848.59;4971930;28;20054;-77
2021/01/24 09:02:39;;;;;;;2.08;1.13;;;;;;;24.13;34.68;93849.28;4971204;28;20078;-75
2021/01/24 09:05:06;;;;;;;2.35;1.10;;;;;;;24.26;35.11;93868.25;4971356;28;20101;-86
2021/01/24 09:07:40;;;;;;;1.90;1.13;;;;;;;24.36;34.70;93861.00;4974845;28;20500;-84
2021/01/24 09:10:15;;;;;;;2.95;1.10;;;;;;;24.42;34.66;93858.84;4973664;28;20142;-84
2021/01/24 09:12:40;;;;;;;1.60;1.10;;;;;;;24.42;34.50;93880.66;4972920;28;20046;-81
2021/01/24 09:15:07;;;;;;;2.50;1.10;;;;;;;24.49;34.56;93879.97;4973723;28;20023;-89
2021/01/24 09:17:32;;;;;;;2.28;0.90;;;;;;;24.35;32.54;93889.59;4976046;28;20022;-86
2021/01/24 09:19:58;;;;;;;1.38;1.02;;;;;;;24.45;33.69;93885.03;4978628;28;20041;-82
2021/01/24 09:22:23;;;;;;;3.85;1.48;;;;;;;24.31;34.14;93864.63;4976854;28;20512;-86
2021/01/24 09:24:49;;;;;;;2.25;1.00;;;;;;;24.45;34.09;93879.56;4974450;28;20022;-85
2021/01/24 09:27:15;;;;;;;3.13;1.13;;;;;;;24.45;33.77;93885.03;4976444;28;20027;-84
2021/01/24 09:29:41;;;;;;;4.47;1.63;;;;;;;24.40;34.14;93883.22;4978179;28;20061;-86
2021/01/24 09:32:07;;;;;;;2.53;1.10;;;;;;;24.45;33.94;93874.13;4977882;28;20027;-85
2021/01/24 09:34:32;;;;;;;2.38;1.10;;;;;;;24.43;33.74;93871.22;4976834;28;20058;-85
2021/01/24 09:36:58;;;;;;;2.60;1.00;;;;;;;24.44;34.24;93875.41;4972386;28;20031;-86
2021/01/24 09:39:23;;;;;;;2.70;1.52;;;;;;;24.45;33.68;93852.28;4976300;28;20035;-86
2021/01/24 09:41:49;;;;;;;3.33;1.13;;;;;;;24.41;34.07;93841.75;4978728;28;20034;-85
2021/01/24 09:44:15;;;;;;;2.50;0.90;;;;;;;24.36;34.02;93839.19;4978301;28;20023;-84
2021/01/24 09:46:40;;;;;;;3.42;1.30;;;;;;;24.27;33.81;93836.94;4977226;28;20038;-84
2021/01/24 09:49:06;;;;;;;2.80;1.13;;;;;;;24.20;34.36;93851.31;4977490;28;20030;-84
2021/01/24 09:51:31;;;;;;;2.53;1.20;;;;;;;24.15;33.85;93852.19;4977579;28;20056;-85
2021/01/24 09:53:57;;;;;;;1.63;0.80;;;;;;;24.10;34.39;93839.47;4965341;28;20023;-85
2021/01/24 09:56:26;;;;;;;2.22;1.00;;;;;;;24.10;34.46;93833.28;4975982;28;20049;-85
2021/01/24 09:58:52;;;;;;;3.35;1.23;;;;;;;24.00;34.39;93824.88;4977176;28;20042;-85
2021/01/24 10:01:18;;;;;;;3.60;1.02;;;;;;;23.92;34.26;93829.59;4977412;28;20058;-85
2021/01/24 10:03:47;;;;;;;2.28;0.82;;;;;;;23.87;34.24;93814.13;4977405;28;20057;-85
2021/01/24 10:06:14;;;;;;;2.55;0.90;;;;;;;23.86;34.73;93808.50;4977234;28;20034;-85
2021/01/24 10:08:39;;;;;;;2.33;1.10;;;;;;;23.81;34.90;93812.09;4977212;28;20046;-85
2021/01/24 10:11:05;;;;;;;3.28;1.10;;;;;;;23.80;34.59;93819.56;4976812;28;20019;-85
2021/01/24 10:13:30;;;;;;;2.60;1.15;;;;;;;23.72;34.28;93818.06;4975698;28;20026;-85
2021/01/24 10:15:56;;;;;;;1.80;1.15;;;;;;;23.67;34.43;93808.06;4976681;28;20133;-85
2021/01/24 10:18:22;;;;;;;1.65;1.00;;;;;;;23.62;34.49;93814.38;4977719;28;20019;-85
2021/01/24 10:20:47;;;;;;;2.15;1.25;;;;;;;23.62;34.26;93806.22;4977961;28;20023;-85
2021/01/24 10:23:13;;;;;;;2.22;1.33;;;;;;;23.62;34.89;93811.66;4979960;28;20164;-85
2021/01/24 10:25:39;;;;;;;2.25;0.90;;;;;;;23.60;34.37;93798.56;4978111;28;20023;-84
2021/01/24 10:28:05;;;;;;;2.75;1.10;;;;;;;23.61;34.71;93794.56;4977538;28;20031;-83
2021/01/24 10:30:30;;;;;;;2.22;1.10;;;;;;;23.60;34.53;93779.50;4975267;28;20030;-84
2021/01/24 10:32:56;;;;;;;2.83;1.00;;;;;;;23.60;34.36;93795.09;4976440;28;20077;-83
2021/01/24 10:35:21;;;;;;;1.92;0.95;;;;;;;23.61;34.36;93799.28;4976773;28;20033;-85
2021/01/24 10:37:47;;;;;;;1.67;1.10;;;;;;;23.61;34.34;93804.75;4977284;28;20019;-84
2021/01/24 10:40:12;;;;;;;2.25;1.00;;;;;;;23.55;34.67;93785.09;4976828;28;20030;-86
2021/01/24 10:42:38;;;;;;;2.20;1.17;;;;;;;23.44;34.63;93769.09;4976777;28;20027;-85
2021/01/24 10:45:08;;;;;;;1.88;0.90;;;;;;;23.56;34.77;93792.00;4975270;28;20043;-84
2021/01/24 10:47:33;;;;;;;1.92;0.90;;;;;;;23.56;34.80;93797.47;4976768;28;20407;-85
2021/01/24 10:49:59;;;;;;;2.20;1.08;;;;;;;23.54;34.35;93794.53;4976603;28;20030;-85
2021/01/24 10:52:24;;;;;;;2.22;1.30;;;;;;;23.53;34.15;93787.66;4975802;28;20027;-85
2021/01/24 10:54:50;;;;;;;1.80;1.10;;;;;;;23.53;34.41;93787.66;4974693;28;20027;-84
2021/01/24 10:57:15;;;;;;;3.33;0.95;;;;;;;23.25;34.49;93746.84;4976266;28;20031;-85
2021/01/24 10:59:41;;;;;;;1.70;1.30;;;;;;;23.51;34.71;93768.38;4975545;28;20027;-86
2021/01/24 11:02:06;;;;;;;3.03;1.02;;;;;;;23.49;34.26;93776.34;4975409;28;20475;-85
2021/01/24 11:04:32;;;;;;;2.78;1.20;;;;;;;23.47;34.37;93778.91;4976959;28;20078;-86
2021/01/24 11:06:58;;;;;;;1.52;0.90;;;;;;;23.43;34.34;93773.06;4977411;28;20031;-85
2021/01/24 11:09:24;;;;;;;2.15;1.02;;;;;;;23.41;34.25;93775.59;4977130;28;20547;-85
2021/01/24 11:11:50;;;;;;;1.95;1.08;;;;;;;23.39;34.14;93772.69;4976373;28;20018;-85
2021/01/24 11:14:15;;;;;;;1.60;0.80;;;;;;;23.35;34.25;93766.88;4975589;28;20121;-84
2021/01/24 11:16:41;;;;;;;1.85;1.05;;;;;;;23.23;34.32;93749.38;4976177;28;20026;-85
2021/01/24 11:19:07;;;;;;;2.55;1.10;;;;;;;23.21;34.12;93751.91;4974101;28;20019;-85
2021/01/24 11:21:32;;;;;;;2.97;1.10;;;;;;;23.34;34.66;93765.41;4974406;28;20167;-85
2021/01/24 11:23:58;;;;;;;3.25;1.10;;;;;;;23.35;34.21;93772.31;4974687;28;20051;-85
2021/01/24 11:26:24;;;;;;;2.45;1.20;;;;;;;23.36;34.27;93757.41;4975331;28;20035;-85
2021/01/24 11:28:49;;;;;;;3.20;1.10;;;;;;;23.33;34.29;93761.22;4975164;28;20046;-85
2021/01/24 11:31:15;;;;;;;2.78;1.00;;;;;;;23.37;34.59;93770.50;4977527;28;20034;-85
2021/01/24 11:33:40;;;;;;;2.53;0.93;;;;;;;23.34;34.25;93754.50;4975345;28;20038;-85